Terminal Aerodrome Forecast
Issued by NWS

Home | Current Version | Previous Version | Text Only | Print | Product List | Glossary On
Versions: 1 2 3 4 5 6 7 8 9 10 11 12 13 14 15 16 17 18
000
FTUS44 KJAN 241100
TAFGTR
TAF
KGTR 241121Z 2412/2512 VRB03KT 2SM BR OVC002
      TEMPO 2412/2413 1/4SM FG VV001
     FM241330 30003KT P6SM SCT020
     FM241700 33005KT P6SM VCTS SCT030 BKN050CB
     FM242000 34007KT P6SM FEW030 SCT100
     FM250100 35003KT P6SM SCT250
     FM250800 00000KT 4SM BR SKC=

USA.gov is the U.S. government's official web portal to all federal, state and local government web resources and services.